sensor_id;sensor_type;location;lat;lon;timestamp;P1;durP1;ratioP1;P2;durP2;ratioP2
67571;SDS011;54397;47.506;19.158;2023-05-17T00:03:20;6.18;;;4.60;;
67571;SDS011;54397;47.506;19.158;2023-05-17T00:06:47;4.32;;;3.50;;
67571;SDS011;54397;47.506;19.158;2023-05-17T00:10:11;7.78;;;4.55;;
67571;SDS011;54397;47.506;19.158;2023-05-17T00:13:36;5.95;;;3.67;;
67571;SDS011;54397;47.506;19.158;2023-05-17T00:16:58;4.43;;;4.00;;
67571;SDS011;54397;47.506;19.158;2023-05-17T00:20:20;5.55;;;3.95;;
67571;SDS011;54397;47.506;19.158;2023-05-17T00:23:42;8.65;;;4.03;;
67571;SDS011;54397;47.506;19.158;2023-05-17T00:27:08;4.85;;;3.53;;
67571;SDS011;54397;47.506;19.158;2023-05-17T00:30:31;4.05;;;3.63;;
67571;SDS011;54397;47.506;19.158;2023-05-17T00:33:53;5.07;;;3.65;;
67571;SDS011;54397;47.506;19.158;2023-05-17T00:37:18;5.22;;;3.95;;
67571;SDS011;54397;47.506;19.158;2023-05-17T00:40:39;4.47;;;3.67;;
67571;SDS011;54397;47.506;19.158;2023-05-17T00:44:03;6.25;;;4.03;;
67571;SDS011;54397;47.506;19.158;2023-05-17T00:47:29;4.78;;;3.95;;
67571;SDS011;54397;47.506;19.158;2023-05-17T00:50:53;5.43;;;3.05;;
67571;SDS011;54397;47.506;19.158;2023-05-17T00:54:19;5.68;;;3.75;;
67571;SDS011;54397;47.506;19.158;2023-05-17T00:57:41;5.03;;;4.05;;
67571;SDS011;54397;47.506;19.158;2023-05-17T01:01:05;5.97;;;3.65;;
67571;SDS011;54397;47.506;19.158;2023-05-17T01:04:29;4.07;;;3.35;;
67571;SDS011;54397;47.506;19.158;2023-05-17T01:07:51;5.20;;;3.80;;
67571;SDS011;54397;47.506;19.158;2023-05-17T01:11:17;4.35;;;3.30;;
67571;SDS011;54397;47.506;19.158;2023-05-17T01:22:03;5.10;;;3.40;;
67571;SDS011;54397;47.506;19.158;2023-05-17T01:29:15;5.63;;;3.38;;
67571;SDS011;54397;47.506;19.158;2023-05-17T01:32:40;9.00;;;3.80;;
67571;SDS011;54397;47.506;19.158;2023-05-17T01:36:03;3.83;;;2.95;;
67571;SDS011;54397;47.506;19.158;2023-05-17T01:39:31;6.18;;;3.90;;
67571;SDS011;54397;47.506;19.158;2023-05-17T01:42:53;7.55;;;3.35;;
67571;SDS011;54397;47.506;19.158;2023-05-17T01:46:25;4.03;;;3.28;;
67571;SDS011;54397;47.506;19.158;2023-05-17T01:49:51;3.50;;;3.20;;
67571;SDS011;54397;47.506;19.158;2023-05-17T01:53:17;3.63;;;3.33;;
67571;SDS011;54397;47.506;19.158;2023-05-17T01:56:46;4.43;;;3.30;;
67571;SDS011;54397;47.506;19.158;2023-05-17T02:00:11;4.13;;;3.63;;
67571;SDS011;54397;47.506;19.158;2023-05-17T02:03:37;22.42;;;14.35;;
67571;SDS011;54397;47.506;19.158;2023-05-17T02:06:59;15.20;;;10.10;;
67571;SDS011;54397;47.506;19.158;2023-05-17T02:10:23;8.95;;;4.00;;
67571;SDS011;54397;47.506;19.158;2023-05-17T02:13:45;4.78;;;3.35;;
67571;SDS011;54397;47.506;19.158;2023-05-17T02:17:07;9.23;;;7.97;;
67571;SDS011;54397;47.506;19.158;2023-05-17T02:20:29;6.07;;;4.30;;
67571;SDS011;54397;47.506;19.158;2023-05-17T02:23:50;4.35;;;3.60;;
67571;SDS011;54397;47.506;19.158;2023-05-17T02:27:14;4.25;;;3.22;;
67571;SDS011;54397;47.506;19.158;2023-05-17T02:30:36;5.25;;;3.83;;
67571;SDS011;54397;47.506;19.158;2023-05-17T02:34:01;6.28;;;4.05;;
67571;SDS011;54397;47.506;19.158;2023-05-17T02:37:25;5.47;;;3.25;;
67571;SDS011;54397;47.506;19.158;2023-05-17T02:40:52;3.67;;;3.25;;
67571;SDS011;54397;47.506;19.158;2023-05-17T02:44:14;8.32;;;3.45;;
67571;SDS011;54397;47.506;19.158;2023-05-17T02:47:35;4.90;;;3.40;;
67571;SDS011;54397;47.506;19.158;2023-05-17T02:51:03;3.70;;;2.83;;
67571;SDS011;54397;47.506;19.158;2023-05-17T02:54:24;5.78;;;3.80;;
67571;SDS011;54397;47.506;19.158;2023-05-17T02:57:46;6.40;;;3.17;;
67571;SDS011;54397;47.506;19.158;2023-05-17T03:01:08;3.67;;;3.15;;
67571;SDS011;54397;47.506;19.158;2023-05-17T03:04:31;4.18;;;3.30;;
67571;SDS011;54397;47.506;19.158;2023-05-17T03:07:53;7.75;;;3.58;;
67571;SDS011;54397;47.506;19.158;2023-05-17T03:11:15;3.05;;;2.75;;
67571;SDS011;54397;47.506;19.158;2023-05-17T03:14:39;4.07;;;3.20;;
67571;SDS011;54397;47.506;19.158;2023-05-17T03:18:03;4.45;;;3.38;;
67571;SDS011;54397;47.506;19.158;2023-05-17T03:21:25;9.07;;;5.45;;
67571;SDS011;54397;47.506;19.158;2023-05-17T03:24:47;18.05;;;12.18;;
67571;SDS011;54397;47.506;19.158;2023-05-17T03:28:11;8.13;;;4.57;;
67571;SDS011;54397;47.506;19.158;2023-05-17T03:31:38;4.40;;;3.45;;
67571;SDS011;54397;47.506;19.158;2023-05-17T03:34:59;3.30;;;3.00;;
67571;SDS011;54397;47.506;19.158;2023-05-17T03:38:21;4.75;;;3.03;;
67571;SDS011;54397;47.506;19.158;2023-05-17T03:41:43;6.28;;;3.63;;
67571;SDS011;54397;47.506;19.158;2023-05-17T03:45:05;5.80;;;3.67;;
67571;SDS011;54397;47.506;19.158;2023-05-17T03:48:30;4.45;;;3.40;;
67571;SDS011;54397;47.506;19.158;2023-05-17T03:55:17;5.55;;;3.30;;
67571;SDS011;54397;47.506;19.158;2023-05-17T03:58:42;4.40;;;3.67;;
67571;SDS011;54397;47.506;19.158;2023-05-17T04:02:04;5.07;;;3.55;;
67571;SDS011;54397;47.506;19.158;2023-05-17T04:05:26;6.57;;;3.88;;
67571;SDS011;54397;47.506;19.158;2023-05-17T04:08:53;6.75;;;4.32;;
67571;SDS011;54397;47.506;19.158;2023-05-17T04:12:19;8.05;;;5.28;;
67571;SDS011;54397;47.506;19.158;2023-05-17T04:15:41;4.57;;;3.83;;
67571;SDS011;54397;47.506;19.158;2023-05-17T04:19:05;5.07;;;3.63;;
67571;SDS011;54397;47.506;19.158;2023-05-17T04:22:26;3.95;;;3.50;;
67571;SDS011;54397;47.506;19.158;2023-05-17T04:25:48;4.90;;;4.40;;
67571;SDS011;54397;47.506;19.158;2023-05-17T04:29:10;7.18;;;3.72;;
67571;SDS011;54397;47.506;19.158;2023-05-17T04:32:32;4.82;;;3.63;;
67571;SDS011;54397;47.506;19.158;2023-05-17T04:35:55;4.95;;;4.10;;
67571;SDS011;54397;47.506;19.158;2023-05-17T04:39:17;5.97;;;3.53;;
67571;SDS011;54397;47.506;19.158;2023-05-17T04:42:38;7.53;;;3.90;;
67571;SDS011;54397;47.506;19.158;2023-05-17T04:46:00;4.75;;;3.80;;
67571;SDS011;54397;47.506;19.158;2023-05-17T04:49:22;5.28;;;3.70;;
67571;SDS011;54397;47.506;19.158;2023-05-17T04:52:45;6.38;;;4.60;;
67571;SDS011;54397;47.506;19.158;2023-05-17T04:56:07;5.68;;;4.13;;
67571;SDS011;54397;47.506;19.158;2023-05-17T04:59:32;6.05;;;4.13;;
67571;SDS011;54397;47.506;19.158;2023-05-17T05:02:54;4.10;;;3.70;;
67571;SDS011;54397;47.506;19.158;2023-05-17T05:06:15;4.45;;;3.70;;
67571;SDS011;54397;47.506;19.158;2023-05-17T05:09:37;5.70;;;4.00;;
67571;SDS011;54397;47.506;19.158;2023-05-17T05:12:59;6.47;;;5.32;;
67571;SDS011;54397;47.506;19.158;2023-05-17T05:16:23;5.78;;;4.28;;
67571;SDS011;54397;47.506;19.158;2023-05-17T05:19:49;6.50;;;4.00;;
67571;SDS011;54397;47.506;19.158;2023-05-17T05:23:11;7.60;;;4.32;;
67571;SDS011;54397;47.506;19.158;2023-05-17T05:26:33;4.25;;;3.55;;
67571;SDS011;54397;47.506;19.158;2023-05-17T05:29:55;5.03;;;4.13;;
67571;SDS011;54397;47.506;19.158;2023-05-17T05:33:19;5.30;;;3.78;;
67571;SDS011;54397;47.506;19.158;2023-05-17T05:36:41;5.32;;;4.13;;
67571;SDS011;54397;47.506;19.158;2023-05-17T05:40:05;4.50;;;4.05;;
67571;SDS011;54397;47.506;19.158;2023-05-17T05:43:29;6.18;;;4.35;;
67571;SDS011;54397;47.506;19.158;2023-05-17T05:46:53;5.88;;;4.05;;
67571;SDS011;54397;47.506;19.158;2023-05-17T05:50:17;4.57;;;3.65;;
67571;SDS011;54397;47.506;19.158;2023-05-17T05:53:41;4.53;;;4.07;;
67571;SDS011;54397;47.506;19.158;2023-05-17T05:57:05;5.15;;;4.25;;
67571;SDS011;54397;47.506;19.158;2023-05-17T06:00:27;7.30;;;4.35;;
67571;SDS011;54397;47.506;19.158;2023-05-17T06:03:49;7.00;;;4.57;;
67571;SDS011;54397;47.506;19.158;2023-05-17T06:07:14;5.53;;;4.03;;
67571;SDS011;54397;47.506;19.158;2023-05-17T06:10:36;5.63;;;4.30;;
67571;SDS011;54397;47.506;19.158;2023-05-17T06:13:57;5.78;;;4.20;;
67571;SDS011;54397;47.506;19.158;2023-05-17T06:17:19;6.38;;;4.47;;
67571;SDS011;54397;47.506;19.158;2023-05-17T06:20:41;6.15;;;4.38;;
67571;SDS011;54397;47.506;19.158;2023-05-17T06:24:03;5.88;;;4.78;;
67571;SDS011;54397;47.506;19.158;2023-05-17T06:27:25;5.50;;;4.15;;
67571;SDS011;54397;47.506;19.158;2023-05-17T06:30:49;6.18;;;4.60;;
67571;SDS011;54397;47.506;19.158;2023-05-17T06:34:10;6.35;;;5.00;;
67571;SDS011;54397;47.506;19.158;2023-05-17T06:37:32;10.82;;;4.82;;
67571;SDS011;54397;47.506;19.158;2023-05-17T06:40:56;10.60;;;4.90;;
67571;SDS011;54397;47.506;19.158;2023-05-17T06:44:18;5.80;;;4.78;;
67571;SDS011;54397;47.506;19.158;2023-05-17T06:47:43;8.32;;;4.93;;
67571;SDS011;54397;47.506;19.158;2023-05-17T06:51:07;10.63;;;5.70;;
67571;SDS011;54397;47.506;19.158;2023-05-17T06:54:31;7.45;;;4.85;;
67571;SDS011;54397;47.506;19.158;2023-05-17T06:57:53;7.53;;;5.15;;
67571;SDS011;54397;47.506;19.158;2023-05-17T07:01:15;6.75;;;4.68;;
67571;SDS011;54397;47.506;19.158;2023-05-17T07:04:37;6.93;;;4.90;;
67571;SDS011;54397;47.506;19.158;2023-05-17T07:08:01;6.93;;;5.45;;
67571;SDS011;54397;47.506;19.158;2023-05-17T07:11:23;7.50;;;5.57;;
67571;SDS011;54397;47.506;19.158;2023-05-17T07:14:44;10.98;;;5.25;;
67571;SDS011;54397;47.506;19.158;2023-05-17T07:18:08;11.18;;;5.88;;
67571;SDS011;54397;47.506;19.158;2023-05-17T07:21:32;10.68;;;6.75;;
67571;SDS011;54397;47.506;19.158;2023-05-17T07:24:54;7.15;;;5.68;;
67571;SDS011;54397;47.506;19.158;2023-05-17T07:28:18;6.82;;;5.43;;
67571;SDS011;54397;47.506;19.158;2023-05-17T07:31:40;8.57;;;5.68;;
67571;SDS011;54397;47.506;19.158;2023-05-17T07:35:04;6.65;;;5.38;;
67571;SDS011;54397;47.506;19.158;2023-05-17T07:38:26;9.52;;;5.22;;
67571;SDS011;54397;47.506;19.158;2023-05-17T07:41:48;8.52;;;5.25;;
67571;SDS011;54397;47.506;19.158;2023-05-17T07:45:13;8.63;;;5.57;;
67571;SDS011;54397;47.506;19.158;2023-05-17T07:48:35;7.20;;;5.25;;
67571;SDS011;54397;47.506;19.158;2023-05-17T07:51:59;8.82;;;5.45;;
67571;SDS011;54397;47.506;19.158;2023-05-17T07:55:25;6.82;;;5.40;;
67571;SDS011;54397;47.506;19.158;2023-05-17T07:58:49;10.60;;;6.15;;
67571;SDS011;54397;47.506;19.158;2023-05-17T08:02:11;7.60;;;5.75;;
67571;SDS011;54397;47.506;19.158;2023-05-17T08:05:35;8.20;;;6.03;;
67571;SDS011;54397;47.506;19.158;2023-05-17T08:08:59;6.95;;;5.18;;
67571;SDS011;54397;47.506;19.158;2023-05-17T08:12:21;12.20;;;7.03;;
67571;SDS011;54397;47.506;19.158;2023-05-17T08:15:42;8.43;;;6.20;;
67571;SDS011;54397;47.506;19.158;2023-05-17T08:19:06;7.00;;;5.50;;
67571;SDS011;54397;47.506;19.158;2023-05-17T08:22:33;8.80;;;5.57;;
67571;SDS011;54397;47.506;19.158;2023-05-17T08:25:55;11.82;;;6.13;;
67571;SDS011;54397;47.506;19.158;2023-05-17T08:29:16;7.72;;;6.07;;
67571;SDS011;54397;47.506;19.158;2023-05-17T08:32:41;6.88;;;5.82;;
67571;SDS011;54397;47.506;19.158;2023-05-17T08:36:05;11.40;;;5.68;;
67571;SDS011;54397;47.506;19.158;2023-05-17T08:39:30;8.07;;;6.22;;
67571;SDS011;54397;47.506;19.158;2023-05-17T08:42:52;14.93;;;6.80;;
67571;SDS011;54397;47.506;19.158;2023-05-17T08:46:15;8.35;;;6.47;;
67571;SDS011;54397;47.506;19.158;2023-05-17T08:49:38;9.52;;;5.85;;
67571;SDS011;54397;47.506;19.158;2023-05-17T08:53:08;8.20;;;6.53;;
67571;SDS011;54397;47.506;19.158;2023-05-17T08:56:36;9.60;;;6.10;;
67571;SDS011;54397;47.506;19.158;2023-05-17T09:00:02;10.40;;;5.82;;
67571;SDS011;54397;47.506;19.158;2023-05-17T09:03:35;9.82;;;5.88;;
67571;SDS011;54397;47.506;19.158;2023-05-17T09:10:23;11.98;;;6.88;;
67571;SDS011;54397;47.506;19.158;2023-05-17T09:13:44;10.65;;;6.25;;
67571;SDS011;54397;47.506;19.158;2023-05-17T09:17:12;10.23;;;6.78;;
67571;SDS011;54397;47.506;19.158;2023-05-17T09:20:40;11.25;;;6.32;;
67571;SDS011;54397;47.506;19.158;2023-05-17T09:24:10;14.32;;;7.50;;
67571;SDS011;54397;47.506;19.158;2023-05-17T09:27:31;9.90;;;6.80;;
67571;SDS011;54397;47.506;19.158;2023-05-17T09:30:53;9.32;;;6.70;;
67571;SDS011;54397;47.506;19.158;2023-05-17T09:34:17;13.27;;;7.43;;
67571;SDS011;54397;47.506;19.158;2023-05-17T09:37:39;7.70;;;6.63;;
67571;SDS011;54397;47.506;19.158;2023-05-17T09:41:03;7.88;;;5.70;;
67571;SDS011;54397;47.506;19.158;2023-05-17T09:44:27;10.65;;;6.13;;
67571;SDS011;54397;47.506;19.158;2023-05-17T09:47:49;9.73;;;5.90;;
67571;SDS011;54397;47.506;19.158;2023-05-17T09:51:12;9.38;;;6.13;;
67571;SDS011;54397;47.506;19.158;2023-05-17T09:54:36;8.77;;;6.40;;
67571;SDS011;54397;47.506;19.158;2023-05-17T09:58:01;6.40;;;5.47;;
67571;SDS011;54397;47.506;19.158;2023-05-17T10:01:27;8.30;;;6.60;;
67571;SDS011;54397;47.506;19.158;2023-05-17T10:04:55;8.98;;;5.78;;
67571;SDS011;54397;47.506;19.158;2023-05-17T10:08:19;11.30;;;5.53;;
67571;SDS011;54397;47.506;19.158;2023-05-17T10:11:47;10.85;;;5.53;;
67571;SDS011;54397;47.506;19.158;2023-05-17T10:15:14;9.10;;;6.00;;
67571;SDS011;54397;47.506;19.158;2023-05-17T10:18:38;7.07;;;5.30;;
67571;SDS011;54397;47.506;19.158;2023-05-17T10:22:03;5.82;;;5.18;;
67571;SDS011;54397;47.506;19.158;2023-05-17T10:25:43;7.60;;;5.50;;
67571;SDS011;54397;47.506;19.158;2023-05-17T10:29:08;8.07;;;5.78;;
67571;SDS011;54397;47.506;19.158;2023-05-17T10:32:33;8.40;;;5.70;;
67571;SDS011;54397;47.506;19.158;2023-05-17T10:35:57;8.20;;;5.82;;
67571;SDS011;54397;47.506;19.158;2023-05-17T10:39:21;8.43;;;6.13;;
67571;SDS011;54397;47.506;19.158;2023-05-17T10:42:51;9.93;;;6.43;;
67571;SDS011;54397;47.506;19.158;2023-05-17T10:46:18;12.23;;;6.32;;
67571;SDS011;54397;47.506;19.158;2023-05-17T10:49:43;9.80;;;5.55;;
67571;SDS011;54397;47.506;19.158;2023-05-17T10:53:08;8.57;;;4.97;;
67571;SDS011;54397;47.506;19.158;2023-05-17T10:56:32;6.22;;;4.55;;
67571;SDS011;54397;47.506;19.158;2023-05-17T11:00:02;7.70;;;4.65;;
67571;SDS011;54397;47.506;19.158;2023-05-17T11:03:28;7.03;;;4.93;;
67571;SDS011;54397;47.506;19.158;2023-05-17T11:06:51;5.63;;;4.43;;
67571;SDS011;54397;47.506;19.158;2023-05-17T11:10:15;6.40;;;3.95;;
67571;SDS011;54397;47.506;19.158;2023-05-17T11:13:43;5.13;;;4.18;;
67571;SDS011;54397;47.506;19.158;2023-05-17T11:17:18;7.40;;;4.70;;
67571;SDS011;54397;47.506;19.158;2023-05-17T11:21:06;7.45;;;4.60;;
67571;SDS011;54397;47.506;19.158;2023-05-17T11:24:29;6.78;;;4.53;;
67571;SDS011;54397;47.506;19.158;2023-05-17T11:27:51;5.60;;;3.80;;
67571;SDS011;54397;47.506;19.158;2023-05-17T11:31:13;5.63;;;3.85;;
67571;SDS011;54397;47.506;19.158;2023-05-17T11:34:37;4.82;;;3.20;;
67571;SDS011;54397;47.506;19.158;2023-05-17T11:38:21;4.78;;;3.38;;
67571;SDS011;54397;47.506;19.158;2023-05-17T11:41:53;4.88;;;3.33;;
67571;SDS011;54397;47.506;19.158;2023-05-17T11:45:18;6.07;;;3.65;;
67571;SDS011;54397;47.506;19.158;2023-05-17T11:48:39;5.88;;;3.85;;
67571;SDS011;54397;47.506;19.158;2023-05-17T11:52:02;6.82;;;3.45;;
67571;SDS011;54397;47.506;19.158;2023-05-17T11:55:27;3.30;;;2.70;;
67571;SDS011;54397;47.506;19.158;2023-05-17T11:58:54;3.58;;;2.72;;
67571;SDS011;54397;47.506;19.158;2023-05-17T12:02:26;3.72;;;2.67;;
67571;SDS011;54397;47.506;19.158;2023-05-17T12:05:49;5.93;;;2.95;;
67571;SDS011;54397;47.506;19.158;2023-05-17T12:09:14;2.63;;;2.42;;
67571;SDS011;54397;47.506;19.158;2023-05-17T12:12:39;3.22;;;2.28;;
67571;SDS011;54397;47.506;19.158;2023-05-17T12:16:11;2.13;;;1.92;;
67571;SDS011;54397;47.506;19.158;2023-05-17T12:19:38;2.50;;;2.30;;
67571;SDS011;54397;47.506;19.158;2023-05-17T12:23:00;4.35;;;2.58;;
67571;SDS011;54397;47.506;19.158;2023-05-17T12:26:24;2.70;;;2.25;;
67571;SDS011;54397;47.506;19.158;2023-05-17T12:29:46;2.50;;;2.30;;
67571;SDS011;54397;47.506;19.158;2023-05-17T12:33:10;2.10;;;2.00;;
67571;SDS011;54397;47.506;19.158;2023-05-17T12:36:35;2.60;;;2.28;;
67571;SDS011;54397;47.506;19.158;2023-05-17T12:40:00;2.50;;;2.30;;
67571;SDS011;54397;47.506;19.158;2023-05-17T12:43:25;3.00;;;2.30;;
67571;SDS011;54397;47.506;19.158;2023-05-17T12:46:47;4.20;;;2.42;;
67571;SDS011;54397;47.506;19.158;2023-05-17T12:50:14;2.55;;;2.20;;
67571;SDS011;54397;47.506;19.158;2023-05-17T12:57:16;2.30;;;1.73;;
67571;SDS011;54397;47.506;19.158;2023-05-17T13:00:38;2.72;;;1.92;;
67571;SDS011;54397;47.506;19.158;2023-05-17T13:04:01;2.83;;;2.00;;
67571;SDS011;54397;47.506;19.158;2023-05-17T13:07:26;2.40;;;2.17;;
67571;SDS011;54397;47.506;19.158;2023-05-17T13:11:03;2.65;;;1.80;;
67571;SDS011;54397;47.506;19.158;2023-05-17T13:18:10;3.30;;;1.95;;
67571;SDS011;54397;47.506;19.158;2023-05-17T13:21:36;1.70;;;1.60;;
67571;SDS011;54397;47.506;19.158;2023-05-17T13:25:01;3.33;;;2.10;;
67571;SDS011;54397;47.506;19.158;2023-05-17T13:28:26;1.77;;;1.63;;
67571;SDS011;54397;47.506;19.158;2023-05-17T13:31:47;1.90;;;1.58;;
67571;SDS011;54397;47.506;19.158;2023-05-17T13:35:09;3.70;;;1.83;;
67571;SDS011;54397;47.506;19.158;2023-05-17T13:38:31;2.75;;;2.40;;
67571;SDS011;54397;47.506;19.158;2023-05-17T13:41:55;1.60;;;1.50;;
67571;SDS011;54397;47.506;19.158;2023-05-17T13:45:20;2.42;;;2.03;;
67571;SDS011;54397;47.506;19.158;2023-05-17T13:48:42;2.72;;;1.90;;
67571;SDS011;54397;47.506;19.158;2023-05-17T13:52:04;4.07;;;2.05;;
67571;SDS011;54397;47.506;19.158;2023-05-17T13:55:33;3.05;;;1.90;;
67571;SDS011;54397;47.506;19.158;2023-05-17T13:58:55;4.90;;;2.00;;
67571;SDS011;54397;47.506;19.158;2023-05-17T14:02:17;1.85;;;1.42;;
67571;SDS011;54397;47.506;19.158;2023-05-17T14:05:38;1.90;;;1.80;;
67571;SDS011;54397;47.506;19.158;2023-05-17T14:09:00;2.38;;;1.80;;
67571;SDS011;54397;47.506;19.158;2023-05-17T14:12:22;2.95;;;1.90;;
67571;SDS011;54397;47.506;19.158;2023-05-17T14:15:44;2.05;;;1.60;;
67571;SDS011;54397;47.506;19.158;2023-05-17T14:19:05;2.47;;;1.80;;
67571;SDS011;54397;47.506;19.158;2023-05-17T14:22:27;1.98;;;1.77;;
67571;SDS011;54397;47.506;19.158;2023-05-17T14:25:51;2.85;;;1.60;;
67571;SDS011;54397;47.506;19.158;2023-05-17T14:29:13;1.83;;;1.73;;
67571;SDS011;54397;47.506;19.158;2023-05-17T14:32:35;1.50;;;1.38;;
67571;SDS011;54397;47.506;19.158;2023-05-17T14:35:58;2.30;;;1.98;;
67571;SDS011;54397;47.506;19.158;2023-05-17T14:39:23;1.38;;;1.27;;
67571;SDS011;54397;47.506;19.158;2023-05-17T14:42:47;2.47;;;1.53;;
67571;SDS011;54397;47.506;19.158;2023-05-17T14:46:09;4.72;;;1.55;;
67571;SDS011;54397;47.506;19.158;2023-05-17T14:49:35;1.50;;;1.40;;
67571;SDS011;54397;47.506;19.158;2023-05-17T14:52:56;1.73;;;1.63;;
67571;SDS011;54397;47.506;19.158;2023-05-17T14:56:18;1.75;;;1.40;;
67571;SDS011;54397;47.506;19.158;2023-05-17T14:59:40;1.40;;;1.27;;
67571;SDS011;54397;47.506;19.158;2023-05-17T15:03:05;1.30;;;1.20;;
67571;SDS011;54397;47.506;19.158;2023-05-17T15:06:29;3.15;;;2.28;;
67571;SDS011;54397;47.506;19.158;2023-05-17T15:09:52;1.27;;;1.17;;
67571;SDS011;54397;47.506;19.158;2023-05-17T15:13:15;1.52;;;1.42;;
67571;SDS011;54397;47.506;19.158;2023-05-17T15:16:37;4.63;;;1.23;;
67571;SDS011;54397;47.506;19.158;2023-05-17T15:20:00;1.30;;;1.20;;
67571;SDS011;54397;47.506;19.158;2023-05-17T15:23:22;1.67;;;1.13;;
67571;SDS011;54397;47.506;19.158;2023-05-17T15:26:43;2.03;;;1.40;;
67571;SDS011;54397;47.506;19.158;2023-05-17T15:30:05;0.85;;;0.85;;
67571;SDS011;54397;47.506;19.158;2023-05-17T15:33:27;1.17;;;1.08;;
67571;SDS011;54397;47.506;19.158;2023-05-17T15:36:53;1.08;;;0.98;;
67571;SDS011;54397;47.506;19.158;2023-05-17T15:40:16;0.73;;;0.73;;
67571;SDS011;54397;47.506;19.158;2023-05-17T15:43:39;1.10;;;1.10;;
67571;SDS011;54397;47.506;19.158;2023-05-17T15:47:01;0.68;;;0.68;;
67571;SDS011;54397;47.506;19.158;2023-05-17T15:50:23;0.90;;;0.90;;
67571;SDS011;54397;47.506;19.158;2023-05-17T15:53:50;2.35;;;0.95;;
67571;SDS011;54397;47.506;19.158;2023-05-17T15:57:16;1.10;;;1.00;;
67571;SDS011;54397;47.506;19.158;2023-05-17T16:00:40;0.57;;;0.57;;
67571;SDS011;54397;47.506;19.158;2023-05-17T16:04:07;0.95;;;0.95;;
67571;SDS011;54397;47.506;19.158;2023-05-17T16:07:28;0.80;;;0.80;;
67571;SDS011;54397;47.506;19.158;2023-05-17T16:10:51;0.65;;;0.65;;
67571;SDS011;54397;47.506;19.158;2023-05-17T16:14:15;0.65;;;0.65;;
67571;SDS011;54397;47.506;19.158;2023-05-17T16:17:37;0.75;;;0.68;;
67571;SDS011;54397;47.506;19.158;2023-05-17T16:21:01;1.13;;;0.95;;
67571;SDS011;54397;47.506;19.158;2023-05-17T16:24:24;0.70;;;0.70;;
67571;SDS011;54397;47.506;19.158;2023-05-17T16:27:46;0.55;;;0.55;;
67571;SDS011;54397;47.506;19.158;2023-05-17T16:31:08;0.65;;;0.65;;
67571;SDS011;54397;47.506;19.158;2023-05-17T16:34:30;0.70;;;0.70;;
67571;SDS011;54397;47.506;19.158;2023-05-17T16:37:55;0.60;;;0.60;;
67571;SDS011;54397;47.506;19.158;2023-05-17T16:41:16;0.60;;;0.60;;
67571;SDS011;54397;47.506;19.158;2023-05-17T16:44:41;0.68;;;0.68;;
67571;SDS011;54397;47.506;19.158;2023-05-17T16:48:06;0.70;;;0.70;;
67571;SDS011;54397;47.506;19.158;2023-05-17T16:51:27;0.60;;;0.60;;
67571;SDS011;54397;47.506;19.158;2023-05-17T16:54:49;1.35;;;0.70;;
67571;SDS011;54397;47.506;19.158;2023-05-17T16:58:11;0.75;;;0.75;;
67571;SDS011;54397;47.506;19.158;2023-05-17T17:01:35;0.95;;;0.93;;
67571;SDS011;54397;47.506;19.158;2023-05-17T17:04:59;3.13;;;0.60;;
67571;SDS011;54397;47.506;19.158;2023-05-17T17:08:21;1.52;;;1.00;;
67571;SDS011;54397;47.506;19.158;2023-05-17T17:11:43;1.60;;;0.90;;
67571;SDS011;54397;47.506;19.158;2023-05-17T17:15:08;0.77;;;0.73;;
67571;SDS011;54397;47.506;19.158;2023-05-17T17:18:30;0.70;;;0.68;;
67571;SDS011;54397;47.506;19.158;2023-05-17T17:21:51;0.98;;;0.90;;
67571;SDS011;54397;47.506;19.158;2023-05-17T17:25:13;0.80;;;0.80;;
67571;SDS011;54397;47.506;19.158;2023-05-17T17:28:35;1.05;;;0.60;;
67571;SDS011;54397;47.506;19.158;2023-05-17T17:31:58;1.83;;;0.70;;
67571;SDS011;54397;47.506;19.158;2023-05-17T17:35:22;0.70;;;0.70;;
67571;SDS011;54397;47.506;19.158;2023-05-17T17:38:44;1.45;;;0.80;;
67571;SDS011;54397;47.506;19.158;2023-05-17T17:42:06;0.80;;;0.80;;
67571;SDS011;54397;47.506;19.158;2023-05-17T17:45:29;1.77;;;1.10;;
67571;SDS011;54397;47.506;19.158;2023-05-17T17:48:51;6.07;;;1.20;;
67571;SDS011;54397;47.506;19.158;2023-05-17T17:52:19;1.15;;;1.05;;
67571;SDS011;54397;47.506;19.158;2023-05-17T17:55:41;1.52;;;1.10;;
67571;SDS011;54397;47.506;19.158;2023-05-17T17:59:03;2.03;;;1.00;;
67571;SDS011;54397;47.506;19.158;2023-05-17T18:02:24;1.00;;;1.00;;
67571;SDS011;54397;47.506;19.158;2023-05-17T18:05:48;1.10;;;1.00;;
67571;SDS011;54397;47.506;19.158;2023-05-17T18:09:10;1.20;;;1.10;;
67571;SDS011;54397;47.506;19.158;2023-05-17T18:12:34;2.78;;;1.13;;
67571;SDS011;54397;47.506;19.158;2023-05-17T18:15:58;1.10;;;0.90;;
67571;SDS011;54397;47.506;19.158;2023-05-17T18:19:22;0.90;;;0.90;;
67571;SDS011;54397;47.506;19.158;2023-05-17T18:22:46;0.90;;;0.90;;
67571;SDS011;54397;47.506;19.158;2023-05-17T18:26:08;0.90;;;0.90;;
67571;SDS011;54397;47.506;19.158;2023-05-17T18:29:30;1.00;;;1.00;;
67571;SDS011;54397;47.506;19.158;2023-05-17T18:32:51;1.85;;;1.20;;
67571;SDS011;54397;47.506;19.158;2023-05-17T18:36:16;1.15;;;1.15;;
67571;SDS011;54397;47.506;19.158;2023-05-17T18:39:39;1.27;;;1.00;;
67571;SDS011;54397;47.506;19.158;2023-05-17T18:43:01;1.48;;;0.88;;
67571;SDS011;54397;47.506;19.158;2023-05-17T18:46:23;0.90;;;0.90;;
67571;SDS011;54397;47.506;19.158;2023-05-17T18:49:45;1.65;;;1.38;;
67571;SDS011;54397;47.506;19.158;2023-05-17T18:53:07;1.30;;;1.20;;
67571;SDS011;54397;47.506;19.158;2023-05-17T18:56:29;1.50;;;1.23;;
67571;SDS011;54397;47.506;19.158;2023-05-17T18:59:53;1.45;;;1.30;;
67571;SDS011;54397;47.506;19.158;2023-05-17T19:03:17;0.90;;;0.90;;
67571;SDS011;54397;47.506;19.158;2023-05-17T19:06:42;1.23;;;1.13;;
67571;SDS011;54397;47.506;19.158;2023-05-17T19:10:03;1.02;;;1.00;;
67571;SDS011;54397;47.506;19.158;2023-05-17T19:13:26;1.23;;;1.13;;
67571;SDS011;54397;47.506;19.158;2023-05-17T19:16:47;1.40;;;1.30;;
67571;SDS011;54397;47.506;19.158;2023-05-17T19:20:11;1.50;;;1.40;;
67571;SDS011;54397;47.506;19.158;2023-05-17T19:23:33;1.90;;;1.25;;
67571;SDS011;54397;47.506;19.158;2023-05-17T19:26:58;1.60;;;1.45;;
67571;SDS011;54397;47.506;19.158;2023-05-17T19:30:20;1.98;;;1.58;;
67571;SDS011;54397;47.506;19.158;2023-05-17T19:33:41;1.33;;;1.23;;
67571;SDS011;54397;47.506;19.158;2023-05-17T19:37:03;1.35;;;1.25;;
67571;SDS011;54397;47.506;19.158;2023-05-17T19:40:29;1.73;;;1.48;;
67571;SDS011;54397;47.506;19.158;2023-05-17T19:43:54;1.52;;;1.42;;
67571;SDS011;54397;47.506;19.158;2023-05-17T19:47:16;1.63;;;1.30;;
67571;SDS011;54397;47.506;19.158;2023-05-17T19:50:40;1.40;;;1.30;;
67571;SDS011;54397;47.506;19.158;2023-05-17T19:54:02;1.60;;;1.50;;
67571;SDS011;54397;47.506;19.158;2023-05-17T19:57:29;1.40;;;1.30;;
67571;SDS011;54397;47.506;19.158;2023-05-17T20:00:52;1.75;;;1.27;;
67571;SDS011;54397;47.506;19.158;2023-05-17T20:04:13;1.42;;;1.33;;
67571;SDS011;54397;47.506;19.158;2023-05-17T20:07:37;1.63;;;1.27;;
67571;SDS011;54397;47.506;19.158;2023-05-17T20:10:59;1.20;;;1.15;;
67571;SDS011;54397;47.506;19.158;2023-05-17T20:14:21;1.92;;;1.30;;
67571;SDS011;54397;47.506;19.158;2023-05-17T20:17:43;1.77;;;1.40;;
67571;SDS011;54397;47.506;19.158;2023-05-17T20:21:05;1.50;;;1.40;;
67571;SDS011;54397;47.506;19.158;2023-05-17T20:24:27;1.27;;;1.17;;
67571;SDS011;54397;47.506;19.158;2023-05-17T20:27:51;1.50;;;1.40;;
67571;SDS011;54397;47.506;19.158;2023-05-17T20:31:17;2.03;;;1.27;;
67571;SDS011;54397;47.506;19.158;2023-05-17T20:34:41;1.35;;;1.25;;